Time;durP1;ratioP1;P1;durP2;ratioP2;P2;SDS_P1;SDS_P2;PMS_P1;PMS_P2;Temp;Humidity;BMP_temperature;BMP_pressure;BME280_temperature;BME280_humidity;BME280_pressure;Samples;Min_cycle;Max_cycle;Signal;HPM_P1;HPM_P2
2023/06/18 00:01:25;;;;;;;0.00;0.00;;;17.70;75.40;;;;;;5071185;28;20172;-70
2023/06/18 00:03:50;;;;;;;0.00;0.00;;;17.70;75.70;;;;;;5058829;28;20177;-71
2023/06/18 00:06:16;;;;;;;0.05;0.05;;;17.60;76.20;;;;;;5050969;28;20268;-70
2023/06/18 00:08:41;;;;;;;0.00;0.00;;;17.60;77.00;;;;;;5050879;28;20307;-71
2023/06/18 00:11:07;;;;;;;0.00;0.00;;;17.70;77.20;;;;;;5067360;28;20173;-71
2023/06/18 00:13:32;;;;;;;0.10;0.10;;;17.60;77.20;;;;;;5073596;28;20184;-70
2023/06/18 00:15:58;;;;;;;0.00;0.00;;;17.60;77.40;;;;;;5074661;28;20276;-71
2023/06/18 00:18:23;;;;;;;0.40;0.40;;;17.50;77.30;;;;;;5074862;28;20224;-72
2023/06/18 00:20:49;;;;;;;0.00;0.00;;;17.50;77.80;;;;;;5074753;28;20173;-71
2023/06/18 00:23:15;;;;;;;0.00;0.00;;;17.40;77.90;;;;;;5073366;28;20216;-71
2023/06/18 00:25:41;;;;;;;0.00;0.00;;;17.40;78.30;;;;;;5074654;28;20632;-70
2023/06/18 00:28:07;;;;;;;0.05;0.05;;;17.30;78.20;;;;;;5074515;28;20225;-71
2023/06/18 00:30:33;;;;;;;0.00;0.00;;;17.30;78.50;;;;;;5056650;28;20195;-70
2023/06/18 00:32:59;;;;;;;0.00;0.00;;;17.30;78.90;;;;;;5074392;28;20181;-71
2023/06/18 00:35:24;;;;;;;0.00;0.00;;;17.30;79.30;;;;;;5074484;28;20229;-70
2023/06/18 00:37:50;;;;;;;0.00;0.00;;;17.20;79.90;;;;;;5073084;28;20185;-71
2023/06/18 00:40:16;;;;;;;0.00;0.00;;;17.20;80.20;;;;;;5074269;28;20173;-71
2023/06/18 00:42:42;;;;;;;0.05;0.05;;;17.20;80.90;;;;;;5074308;28;20260;-70
2023/06/18 00:45:09;;;;;;;0.13;0.13;;;17.20;81.20;;;;;;5074422;28;20177;-71
2023/06/18 00:47:40;;;;;;;0.00;0.00;;;17.20;81.30;;;;;;5074034;28;20278;-70
2023/06/18 00:50:06;;;;;;;0.00;0.00;;;17.10;81.60;;;;;;5074344;28;20193;-71
2023/06/18 00:52:36;;;;;;;0.00;0.00;;;17.10;82.00;;;;;;5074208;28;20169;-71
2023/06/18 00:55:02;;;;;;;0.20;0.20;;;17.10;82.50;;;;;;5074204;28;20181;-71
2023/06/18 00:57:31;;;;;;;0.00;0.00;;;17.00;82.90;;;;;;5074268;28;20245;-71
2023/06/18 00:59:57;;;;;;;0.00;0.00;;;16.90;83.50;;;;;;5074025;28;20184;-71
2023/06/18 01:02:25;;;;;;;0.00;0.00;;;16.90;84.30;;;;;;5073918;28;20177;-71
2023/06/18 01:04:54;;;;;;;0.00;0.00;;;16.90;85.30;;;;;;5073933;28;20187;-71
2023/06/18 01:07:21;;;;;;;0.10;0.10;;;16.90;86.00;;;;;;5073933;28;20183;-71
2023/06/18 01:09:53;;;;;;;0.00;0.00;;;16.80;87.00;;;;;;5073869;28;20259;-71
2023/06/18 01:12:20;;;;;;;0.00;0.00;;;16.80;88.30;;;;;;5073705;28;20256;-71
2023/06/18 01:14:50;;;;;;;0.00;0.00;;;16.80;89.00;;;;;;5073699;28;20180;-70
2023/06/18 01:17:18;;;;;;;0.00;0.00;;;16.80;89.60;;;;;;5073708;28;20181;-71
2023/06/18 01:19:56;;;;;;;0.13;0.13;;;16.80;90.60;;;;;;5073531;28;20251;-71
2023/06/18 01:22:32;;;;;;;0.00;0.00;;;16.80;90.80;;;;;;5073022;28;20667;-71
2023/06/18 01:25:02;;;;;;;0.00;0.00;;;16.80;91.10;;;;;;5073688;28;20267;-71
2023/06/18 01:27:33;;;;;;;0.10;0.10;;;16.70;91.30;;;;;;5073368;28;20228;-71
2023/06/18 01:30:00;;;;;;;0.00;0.00;;;16.70;91.40;;;;;;5072282;28;20208;-71
2023/06/18 01:32:26;;;;;;;0.00;0.00;;;16.60;91.60;;;;;;5073497;28;20184;-71
2023/06/18 01:34:57;;;;;;;0.08;0.08;;;16.60;91.70;;;;;;5073348;28;20278;-71
2023/06/18 01:37:44;;;;;;;0.00;0.00;;;16.60;91.90;;;;;;5073448;28;20188;-71
2023/06/18 01:40:29;;;;;;;0.00;0.00;;;16.60;92.30;;;;;;5073376;28;20176;-71
2023/06/18 01:43:17;;;;;;;0.10;0.10;;;16.50;92.80;;;;;;5073245;28;20266;-71
2023/06/18 01:45:50;;;;;;;0.00;0.00;;;16.50;93.00;;;;;;5073221;28;20180;-71
2023/06/18 01:48:19;;;;;;;0.00;0.00;;;16.50;93.20;;;;;;5071651;28;20295;-71
2023/06/18 01:50:47;;;;;;;0.00;0.00;;;16.50;93.30;;;;;;5073068;28;20173;-72
2023/06/18 01:53:16;;;;;;;0.00;0.00;;;16.50;93.60;;;;;;5071899;28;20180;-72
2023/06/18 01:55:44;;;;;;;0.00;0.00;;;16.40;93.80;;;;;;5072993;28;20180;-72
2023/06/18 01:58:13;;;;;;;0.00;0.00;;;16.40;94.00;;;;;;5073082;28;20169;-72
2023/06/18 02:00:40;;;;;;;0.00;0.00;;;16.40;94.20;;;;;;5072768;28;20184;-71
2023/06/18 02:03:05;;;;;;;0.00;0.00;;;16.30;94.60;;;;;;5073036;28;20177;-71
2023/06/18 02:05:31;;;;;;;0.00;0.00;;;16.30;94.80;;;;;;5073149;28;20870;-71
2023/06/18 02:07:56;;;;;;;0.00;0.00;;;16.30;95.00;;;;;;5072570;28;20208;-72
2023/06/18 02:10:22;;;;;;;0.00;0.00;;;16.20;95.10;;;;;;5072823;28;20208;-72
2023/06/18 02:12:48;;;;;;;0.00;0.00;;;16.20;95.40;;;;;;5072514;28;20213;-72
2023/06/18 02:15:14;;;;;;;0.00;0.00;;;16.10;95.80;;;;;;5072792;28;20179;-71
2023/06/18 02:17:40;;;;;;;0.00;0.00;;;16.10;95.90;;;;;;5072416;28;20173;-72
2023/06/18 02:20:06;;;;;;;0.00;0.00;;;16.10;96.00;;;;;;5072628;28;20188;-72
2023/06/18 02:22:32;;;;;;;0.00;0.00;;;16.00;96.00;;;;;;5072581;28;20177;-71
2023/06/18 02:24:58;;;;;;;0.05;0.05;;;15.90;95.90;;;;;;5072308;28;20181;-71
2023/06/18 02:27:23;;;;;;;0.00;0.00;;;15.90;96.00;;;;;;5072063;28;20217;-72
2023/06/18 02:29:49;;;;;;;0.00;0.00;;;15.90;96.20;;;;;;5072249;28;20239;-71
2023/06/18 02:32:14;;;;;;;0.10;0.10;;;15.80;96.30;;;;;;5071999;28;20264;-72
2023/06/18 02:34:40;;;;;;;0.00;0.00;;;15.80;96.50;;;;;;5071504;28;20644;-72
2023/06/18 02:37:09;;;;;;;0.00;0.00;;;15.80;96.70;;;;;;5072306;28;20169;-72
2023/06/18 02:39:35;;;;;;;0.15;0.15;;;15.80;96.90;;;;;;5071926;28;20708;-72
2023/06/18 02:42:00;;;;;;;0.00;0.00;;;15.80;97.00;;;;;;5072193;28;20185;-72
2023/06/18 02:44:28;;;;;;;0.00;0.00;;;15.80;97.20;;;;;;5072124;28;20180;-71
2023/06/18 02:46:54;;;;;;;0.00;0.00;;;15.80;97.30;;;;;;5072055;28;20168;-72
2023/06/18 02:49:20;;;;;;;0.20;0.20;;;15.90;97.50;;;;;;5071990;28;20239;-72
2023/06/18 02:51:46;;;;;;;0.20;0.20;;;15.80;97.60;;;;;;5070661;28;20192;-72
2023/06/18 02:54:11;;;;;;;0.00;0.00;;;15.80;97.80;;;;;;5071997;28;20660;-72
2023/06/18 02:56:37;;;;;;;0.00;0.00;;;15.80;97.80;;;;;;5070582;28;20173;-72
2023/06/18 02:59:03;;;;;;;0.00;0.00;;;15.80;98.10;;;;;;5071893;28;20177;-71
2023/06/18 03:01:31;;;;;;;0.00;0.00;;;15.70;98.20;;;;;;5071897;28;20709;-72
2023/06/18 03:03:57;;;;;;;0.00;0.00;;;15.70;98.30;;;;;;5071547;28;20191;-72
2023/06/18 03:06:23;;;;;;;0.00;0.00;;;15.70;98.30;;;;;;5071646;28;20185;-72
2023/06/18 03:08:49;;;;;;;0.00;0.00;;;15.70;98.60;;;;;;5071504;28;20274;-71
2023/06/18 03:11:14;;;;;;;0.30;0.30;;;15.70;98.60;;;;;;5071583;28;20191;-72
2023/06/18 03:13:40;;;;;;;0.00;0.00;;;15.70;98.50;;;;;;5071496;28;20663;-72
2023/06/18 03:16:05;;;;;;;0.30;0.30;;;15.60;98.60;;;;;;5071678;28;20164;-72
2023/06/18 03:18:31;;;;;;;0.00;0.00;;;15.60;98.60;;;;;;5070400;28;20246;-71
2023/06/18 03:20:57;;;;;;;0.00;0.00;;;15.60;98.60;;;;;;5071483;28;20175;-72
2023/06/18 03:23:23;;;;;;;0.25;0.25;;;15.60;98.80;;;;;;5071518;28;20667;-72
2023/06/18 03:25:48;;;;;;;0.00;0.00;;;15.60;99.00;;;;;;5071475;28;20225;-72
2023/06/18 03:28:14;;;;;;;0.00;0.00;;;15.60;99.20;;;;;;5071356;28;20293;-71
2023/06/18 03:30:41;;;;;;;0.00;0.00;;;15.50;99.20;;;;;;5070205;28;20254;-72
2023/06/18 03:33:08;;;;;;;0.00;0.00;;;15.50;99.20;;;;;;5071570;28;20322;-72
2023/06/18 03:35:36;;;;;;;0.00;0.00;;;15.50;99.30;;;;;;5071356;28;20177;-71
2023/06/18 03:38:02;;;;;;;0.00;0.00;;;15.50;99.30;;;;;;5071451;28;20161;-72
2023/06/18 03:40:28;;;;;;;0.00;0.00;;;15.50;99.30;;;;;;5071406;28;20172;-72
2023/06/18 03:42:53;;;;;;;0.00;0.00;;;15.50;99.20;;;;;;5071288;28;20211;-72
2023/06/18 03:45:19;;;;;;;0.10;0.10;;;15.50;99.20;;;;;;5073437;28;20177;-72
2023/06/18 03:47:45;;;;;;;0.10;0.10;;;15.50;99.30;;;;;;5075129;28;20275;-72
2023/06/18 03:50:11;;;;;;;0.10;0.10;;;15.40;99.40;;;;;;5075254;28;20191;-72
2023/06/18 03:52:37;;;;;;;0.00;0.00;;;15.40;99.60;;;;;;5073753;28;20173;-72
2023/06/18 03:55:03;;;;;;;1.95;0.73;;;15.50;99.70;;;;;;5074773;28;20236;-72
2023/06/18 03:57:30;;;;;;;0.10;0.10;;;15.50;99.80;;;;;;5074414;28;20200;-72
2023/06/18 03:59:56;;;;;;;0.05;0.05;;;15.50;99.80;;;;;;5074996;28;20179;-72
2023/06/18 04:02:21;;;;;;;0.00;0.00;;;15.60;99.90;;;;;;5074943;28;20248;-72
2023/06/18 04:04:47;;;;;;;0.00;0.00;;;15.60;99.90;;;;;;5074775;28;20215;-72
2023/06/18 04:07:13;;;;;;;0.00;0.00;;;15.70;99.80;;;;;;5074900;28;20184;-72
2023/06/18 04:09:39;;;;;;;0.00;0.00;;;15.80;99.70;;;;;;5074832;28;20212;-71
2023/06/18 04:12:05;;;;;;;0.03;0.03;;;15.80;99.60;;;;;;5067947;28;20180;-72
2023/06/18 04:14:30;;;;;;;0.00;0.00;;;15.90;99.50;;;;;;5054618;28;20268;-71
2023/06/18 04:16:56;;;;;;;0.00;0.00;;;16.00;99.50;;;;;;5054593;28;20177;-72
2023/06/18 04:19:21;;;;;;;0.00;0.00;;;16.20;99.40;;;;;;5068907;28;20528;-72
2023/06/18 04:21:48;;;;;;;0.10;0.10;;;16.40;99.20;;;;;;5074443;28;20173;-72
2023/06/18 04:24:13;;;;;;;0.00;0.00;;;16.60;98.90;;;;;;5074498;28;20172;-72
2023/06/18 04:26:39;;;;;;;0.00;0.00;;;16.70;98.40;;;;;;5074097;28;20232;-72
2023/06/18 04:29:05;;;;;;;0.00;0.00;;;16.90;98.10;;;;;;5074366;28;20239;-72
2023/06/18 04:31:30;;;;;;;0.10;0.10;;;17.10;97.80;;;;;;5074326;28;20706;-71
2023/06/18 04:33:56;;;;;;;0.10;0.10;;;17.30;97.40;;;;;;5074203;28;20531;-72
2023/06/18 04:36:21;;;;;;;0.00;0.00;;;17.50;97.00;;;;;;5074309;28;20683;-72
2023/06/18 04:38:47;;;;;;;0.00;0.00;;;17.70;96.80;;;;;;5072819;28;20181;-72
2023/06/18 04:41:12;;;;;;;0.15;0.15;;;17.90;96.20;;;;;;5074212;28;20180;-71
2023/06/18 04:43:38;;;;;;;0.00;0.00;;;18.20;95.70;;;;;;5074240;28;20169;-71
2023/06/18 04:46:03;;;;;;;0.03;0.03;;;18.50;95.10;;;;;;5074203;28;20173;-72
2023/06/18 04:48:29;;;;;;;0.20;0.20;;;18.70;94.70;;;;;;5074003;28;20612;-72
2023/06/18 04:50:54;;;;;;;0.00;0.00;;;18.90;94.20;;;;;;5073734;28;20184;-71
2023/06/18 04:53:20;;;;;;;0.00;0.00;;;19.20;93.60;;;;;;5073976;28;20184;-71
2023/06/18 04:55:46;;;;;;;0.00;0.00;;;19.40;93.20;;;;;;5072995;28;20710;-71
2023/06/18 04:58:13;;;;;;;0.00;0.00;;;19.50;92.50;;;;;;5073771;28;20181;-71
2023/06/18 05:00:38;;;;;;;0.08;0.08;;;19.70;92.30;;;;;;5073634;28;20272;-71
2023/06/18 05:03:04;;;;;;;0.00;0.00;;;19.80;92.30;;;;;;5073834;28;20252;-71
2023/06/18 05:05:30;;;;;;;0.00;0.00;;;19.90;91.90;;;;;;5073855;28;20246;-70
2023/06/18 05:07:56;;;;;;;0.00;0.00;;;20.10;91.90;;;;;;5073554;28;20208;-72
2023/06/18 05:10:21;;;;;;;0.00;0.00;;;20.30;91.50;;;;;;5073795;28;20181;-71
2023/06/18 05:12:47;;;;;;;0.00;0.00;;;20.60;91.00;;;;;;5073663;28;20700;-71
2023/06/18 05:15:12;;;;;;;0.00;0.00;;;20.90;90.60;;;;;;5074533;28;20652;-71
2023/06/18 05:17:38;;;;;;;0.00;0.00;;;21.20;89.90;;;;;;5073332;28;20259;-71
2023/06/18 05:20:04;;;;;;;0.05;0.05;;;21.50;88.50;;;;;;5073493;28;20270;-71
2023/06/18 05:22:30;;;;;;;0.00;0.00;;;21.90;87.30;;;;;;5073417;28;20177;-70
2023/06/18 05:24:59;;;;;;;0.00;0.00;;;22.20;86.10;;;;;;5073218;28;20200;-70
2023/06/18 05:27:25;;;;;;;0.00;0.00;;;22.50;85.50;;;;;;5073006;28;20688;-71
2023/06/18 05:29:51;;;;;;;0.00;0.00;;;22.80;84.00;;;;;;5073193;28;20655;-71
2023/06/18 05:32:16;;;;;;;0.00;0.00;;;23.10;82.80;;;;;;5073231;28;20177;-71
2023/06/18 05:34:42;;;;;;;0.00;0.00;;;23.30;81.60;;;;;;5073093;28;20177;-71
2023/06/18 05:37:07;;;;;;;0.00;0.00;;;23.40;80.80;;;;;;5073261;28;20172;-70
2023/06/18 05:39:33;;;;;;;0.00;0.00;;;23.40;80.50;;;;;;5073082;28;20183;-70
2023/06/18 05:41:58;;;;;;;0.00;0.00;;;23.50;80.20;;;;;;5072903;28;20176;-71
2023/06/18 05:44:24;;;;;;;0.00;0.00;;;23.70;79.40;;;;;;5073094;28;20165;-71
2023/06/18 05:46:49;;;;;;;0.00;0.00;;;23.90;78.30;;;;;;5072903;28;20260;-70
2023/06/18 05:49:15;;;;;;;0.20;0.20;;;24.20;78.60;;;;;;5072789;28;20216;-71
2023/06/18 05:51:41;;;;;;;0.00;0.00;;;24.50;76.90;;;;;;5072819;28;20694;-71
2023/06/18 05:54:06;;;;;;;0.00;0.00;;;24.80;76.30;;;;;;5072781;28;20530;-71
2023/06/18 05:56:32;;;;;;;0.00;0.00;;;25.10;75.10;;;;;;5072771;28;20702;-70
2023/06/18 05:58:57;;;;;;;0.00;0.00;;;25.30;73.60;;;;;;5072685;28;20184;-71
2023/06/18 06:01:23;;;;;;;0.00;0.00;;;25.60;72.40;;;;;;5072741;28;20652;-70
2023/06/18 06:03:48;;;;;;;0.00;0.00;;;25.90;71.50;;;;;;5072522;28;20183;-70
2023/06/18 06:06:14;;;;;;;0.00;0.00;;;26.40;70.60;;;;;;5072449;28;20279;-71
2023/06/18 06:08:39;;;;;;;0.00;0.00;;;26.90;68.80;;;;;;5072175;28;20212;-70
2023/06/18 06:11:05;;;;;;;0.00;0.00;;;27.50;67.30;;;;;;5071072;28;20216;-70
2023/06/18 06:13:30;;;;;;;0.00;0.00;;;28.00;65.50;;;;;;5072536;28;20175;-70
2023/06/18 06:15:56;;;;;;;0.28;0.15;;;28.50;63.50;;;;;;5072222;28;20531;-70
2023/06/18 06:18:21;;;;;;;0.00;0.00;;;29.00;61.90;;;;;;5072217;28;20183;-71
2023/06/18 06:20:47;;;;;;;0.20;0.20;;;29.40;60.50;;;;;;5072066;28;20180;-70
2023/06/18 06:23:12;;;;;;;0.00;0.00;;;29.80;58.80;;;;;;5072219;28;20676;-71
2023/06/18 06:25:38;;;;;;;0.00;0.00;;;29.90;57.50;;;;;;5072122;28;20212;-71
2023/06/18 06:28:04;;;;;;;0.00;0.00;;;29.90;56.60;;;;;;5071952;28;20228;-70
2023/06/18 06:30:30;;;;;;;0.00;0.00;;;29.80;56.10;;;;;;5071905;28;20517;-70
2023/06/18 06:32:55;;;;;;;0.00;0.00;;;29.60;55.90;;;;;;5071900;28;20253;-70
2023/06/18 06:35:23;;;;;;;0.00;0.00;;;29.70;56.30;;;;;;5071976;28;20541;-70
2023/06/18 06:37:48;;;;;;;0.00;0.00;;;29.90;56.20;;;;;;5071800;28;20184;-70
2023/06/18 06:40:14;;;;;;;0.00;0.00;;;30.40;56.10;;;;;;5071860;28;20192;-70
2023/06/18 06:42:39;;;;;;;0.00;0.00;;;30.70;55.20;;;;;;5070553;28;20172;-70
2023/06/18 06:45:05;;;;;;;0.00;0.00;;;31.00;54.70;;;;;;5071894;28;20172;-70
2023/06/18 06:47:31;;;;;;;0.00;0.00;;;31.30;53.90;;;;;;5071136;28;20499;-70
2023/06/18 06:49:56;;;;;;;0.00;0.00;;;31.60;53.60;;;;;;5071029;28;20187;-70
2023/06/18 06:52:22;;;;;;;0.00;0.00;;;32.00;53.40;;;;;;5071556;28;20673;-71
2023/06/18 06:54:49;;;;;;;0.00;0.00;;;32.40;51.40;;;;;;5071392;28;20533;-70
2023/06/18 06:57:15;;;;;;;0.03;0.03;;;32.70;50.80;;;;;;5071361;28;20624;-70
2023/06/18 06:59:40;;;;;;;0.00;0.00;;;33.00;49.70;;;;;;5071179;28;20237;-70
2023/06/18 07:02:06;;;;;;;0.00;0.00;;;33.20;49.70;;;;;;5070188;28;20658;-70
2023/06/18 07:04:31;;;;;;;0.00;0.00;;;33.40;49.10;;;;;;5070131;28;20176;-70
2023/06/18 07:06:57;;;;;;;0.00;0.00;;;33.80;48.50;;;;;;5071360;28;20505;-70
2023/06/18 07:09:22;;;;;;;0.00;0.00;;;34.10;48.50;;;;;;5071355;28;20219;-71
2023/06/18 07:11:48;;;;;;;0.08;0.08;;;34.20;47.60;;;;;;5071092;28;20176;-70
2023/06/18 07:14:15;;;;;;;0.10;0.10;;;34.50;47.60;;;;;;5071283;28;20696;-71
2023/06/18 07:16:40;;;;;;;0.00;0.00;;;35.00;46.60;;;;;;5071131;28;20187;-70
2023/06/18 07:19:06;;;;;;;0.00;0.00;;;35.30;46.00;;;;;;5070611;28;20544;-70
2023/06/18 07:21:31;;;;;;;0.00;0.00;;;35.40;46.30;;;;;;5070903;28;20176;-70
2023/06/18 07:23:57;;;;;;;0.00;0.00;;;35.60;46.50;;;;;;5070931;28;20172;-70
2023/06/18 07:26:22;;;;;;;0.00;0.00;;;35.90;44.80;;;;;;5070823;28;20168;-69
2023/06/18 07:28:48;;;;;;;0.00;0.00;;;36.10;43.80;;;;;;5071067;28;20382;-71
2023/06/18 07:31:13;;;;;;;0.10;0.10;;;36.20;42.10;;;;;;5071095;28;20561;-70
2023/06/18 07:33:39;;;;;;;0.00;0.00;;;36.10;41.80;;;;;;5070854;28;20199;-70
2023/06/18 07:36:05;;;;;;;0.00;0.00;;;35.80;41.90;;;;;;5071200;28;20180;-70
2023/06/18 07:38:30;;;;;;;0.03;0.03;;;35.60;41.50;;;;;;5070023;28;20176;-70
2023/06/18 07:40:56;;;;;;;0.00;0.00;;;35.60;41.70;;;;;;5071158;28;20176;-70
2023/06/18 07:43:21;;;;;;;0.00;0.00;;;35.70;41.00;;;;;;5071308;28;20203;-70
2023/06/18 07:45:47;;;;;;;0.10;0.10;;;36.10;40.90;;;;;;5071231;28;20183;-70
2023/06/18 07:48:12;;;;;;;0.00;0.00;;;36.20;40.40;;;;;;5071273;28;20579;-70
2023/06/18 07:50:38;;;;;;;0.00;0.00;;;36.30;40.90;;;;;;5070936;28;20169;-70
2023/06/18 07:53:03;;;;;;;0.00;0.00;;;36.60;40.60;;;;;;5071231;28;20238;-70
2023/06/18 07:55:29;;;;;;;0.00;0.00;;;36.80;39.60;;;;;;5071220;28;20168;-69
2023/06/18 07:57:55;;;;;;;0.00;0.00;;;37.00;39.10;;;;;;5070934;28;20176;-71
2023/06/18 08:00:21;;;;;;;0.10;0.10;;;36.80;39.40;;;;;;5071264;28;20176;-70
2023/06/18 08:02:47;;;;;;;0.00;0.00;;;36.80;38.90;;;;;;5071097;28;20175;-70
2023/06/18 08:05:13;;;;;;;0.00;0.00;;;36.50;39.20;;;;;;5071177;28;20243;-70
2023/06/18 08:07:38;;;;;;;0.00;0.00;;;36.30;40.10;;;;;;5070910;28;20737;-70
2023/06/18 08:10:05;;;;;;;0.10;0.00;;;36.70;39.30;;;;;;5071034;28;20523;-70
2023/06/18 08:12:30;;;;;;;0.15;0.10;;;36.90;38.70;;;;;;5060552;28;20177;-70
2023/06/18 08:14:56;;;;;;;0.00;0.00;;;36.80;39.30;;;;;;5050901;28;20707;-70
2023/06/18 08:17:22;;;;;;;0.00;0.00;;;36.70;39.20;;;;;;5050902;28;20655;-70
2023/06/18 08:19:47;;;;;;;0.55;0.35;;;36.90;38.60;;;;;;5068544;28;20207;-70
2023/06/18 08:22:15;;;;;;;0.10;0.10;;;36.90;38.30;;;;;;5071062;28;20183;-70
2023/06/18 08:24:40;;;;;;;0.00;0.00;;;36.70;38.60;;;;;;5071019;28;20218;-70
2023/06/18 08:27:06;;;;;;;0.00;0.00;;;36.70;38.80;;;;;;5070792;28;20224;-70
2023/06/18 08:29:32;;;;;;;0.00;0.00;;;36.90;38.20;;;;;;5070827;28;20667;-69
2023/06/18 08:32:00;;;;;;;0.10;0.10;;;37.00;38.10;;;;;;5074138;28;20574;-70
2023/06/18 08:34:26;;;;;;;0.00;0.00;;;37.00;37.40;;;;;;5074644;28;20168;-70
2023/06/18 08:36:51;;;;;;;0.00;0.00;;;37.00;37.80;;;;;;5074659;28;20259;-70
2023/06/18 08:39:17;;;;;;;0.13;0.10;;;37.00;37.90;;;;;;5074453;28;20184;-70
2023/06/18 08:41:45;;;;;;;0.00;0.00;;;37.00;37.70;;;;;;5074474;28;20643;-70
2023/06/18 08:44:10;;;;;;;0.00;0.00;;;36.90;37.90;;;;;;5074706;28;20310;-70
2023/06/18 08:46:36;;;;;;;0.00;0.00;;;36.80;38.60;;;;;;5074271;28;20259;-70
2023/06/18 08:49:02;;;;;;;0.00;0.00;;;36.90;38.10;;;;;;5074155;28;20220;-69
2023/06/18 08:51:28;;;;;;;0.00;0.00;;;37.10;37.90;;;;;;5074346;28;20510;-70
2023/06/18 08:53:57;;;;;;;0.00;0.00;;;37.30;36.90;;;;;;5074288;28;20333;-70
2023/06/18 08:56:23;;;;;;;0.00;0.00;;;37.60;37.20;;;;;;5074292;28;20180;-70
2023/06/18 08:58:50;;;;;;;0.00;0.00;;;37.90;36.40;;;;;;5074116;28;20179;-69
2023/06/18 09:01:18;;;;;;;0.10;0.10;;;38.00;35.70;;;;;;5074064;28;20160;-69
2023/06/18 09:03:44;;;;;;;0.00;0.00;;;37.90;36.10;;;;;;5074053;28;20662;-69
2023/06/18 09:06:12;;;;;;;0.00;0.00;;;37.70;35.90;;;;;;5074093;28;20187;-68
2023/06/18 09:08:38;;;;;;;0.00;0.00;;;37.80;36.00;;;;;;5073832;28;20257;-68
2023/06/18 09:11:05;;;;;;;0.00;0.00;;;37.80;35.80;;;;;;5074021;28;20172;-68
2023/06/18 09:13:31;;;;;;;0.00;0.00;;;37.90;36.10;;;;;;5053905;28;20185;-67
2023/06/18 09:15:56;;;;;;;0.00;0.00;;;37.80;34.50;;;;;;5053604;28;20184;-68
2023/06/18 09:18:24;;;;;;;0.10;0.10;;;37.60;34.00;;;;;;5059846;28;20339;-68
2023/06/18 09:20:52;;;;;;;0.10;0.10;;;37.40;33.70;;;;;;5073645;28;20547;-68
2023/06/18 09:23:17;;;;;;;0.22;0.13;;;37.20;33.60;;;;;;5073666;28;20229;-68
2023/06/18 09:25:52;;;;;;;0.00;0.00;;;37.10;33.10;;;;;;5073536;28;20271;-68
2023/06/18 09:28:19;;;;;;;0.20;0.20;;;36.80;33.30;;;;;;5073408;28;20228;-68
2023/06/18 09:30:53;;;;;;;0.00;0.00;;;36.70;34.00;;;;;;5073613;28;20176;-68
2023/06/18 09:33:32;;;;;;;0.00;0.00;;;36.60;33.90;;;;;;5073468;28;20534;-68
2023/06/18 09:36:06;;;;;;;0.00;0.00;;;36.60;34.30;;;;;;5073397;28;20512;-68
2023/06/18 09:38:39;;;;;;;0.15;0.15;;;36.70;34.80;;;;;;5073599;28;20708;-67
2023/06/18 09:41:12;;;;;;;0.00;0.00;;;36.90;34.70;;;;;;5073627;28;20208;-67
2023/06/18 09:43:40;;;;;;;0.08;0.05;;;36.90;33.60;;;;;;5072672;28;20229;-68
2023/06/18 09:46:07;;;;;;;0.00;0.00;;;36.90;33.80;;;;;;5073429;28;20180;-68
2023/06/18 09:48:51;;;;;;;0.00;0.00;;;36.80;32.80;;;;;;5073258;28;20203;-67
2023/06/18 09:51:17;;;;;;;0.00;0.00;;;36.80;33.40;;;;;;5073086;28;20180;-68
2023/06/18 09:53:42;;;;;;;0.00;0.00;;;37.00;33.40;;;;;;5073190;28;20266;-68
2023/06/18 09:56:16;;;;;;;0.00;0.00;;;37.10;33.10;;;;;;5073302;28;20176;-68
2023/06/18 09:58:43;;;;;;;0.00;0.00;;;37.30;31.30;;;;;;5073054;28;20267;-68
2023/06/18 10:01:09;;;;;;;0.00;0.00;;;37.40;32.20;;;;;;5073107;28;20176;-68
2023/06/18 10:03:35;;;;;;;0.00;0.00;;;37.40;32.50;;;;;;5072758;28;20551;-68
2023/06/18 10:06:12;;;;;;;0.00;0.00;;;37.30;31.70;;;;;;5073004;28;20310;-67
2023/06/18 10:08:40;;;;;;;0.00;0.00;;;37.30;31.50;;;;;;5072731;28;20283;-68
2023/06/18 10:11:08;;;;;;;0.10;0.10;;;37.30;32.80;;;;;;5072808;28;20185;-68
2023/06/18 10:13:58;;;;;;;0.00;0.00;;;37.40;30.80;;;;;;5072726;28;20199;-68
2023/06/18 10:16:27;;;;;;;0.00;0.00;;;37.40;31.90;;;;;;5072623;28;20234;-67
2023/06/18 10:19:08;;;;;;;0.00;0.00;;;37.10;31.60;;;;;;5072593;28;20187;-68
2023/06/18 10:21:37;;;;;;;0.00;0.00;;;37.30;31.20;;;;;;5071469;28;20187;-68
2023/06/18 10:24:11;;;;;;;0.00;0.00;;;36.90;30.80;;;;;;5072788;28;20176;-68
2023/06/18 10:26:38;;;;;;;0.00;0.00;;;36.80;31.40;;;;;;5072250;28;20608;-68
2023/06/18 10:29:05;;;;;;;0.00;0.00;;;36.40;31.00;;;;;;5072485;28;20216;-68
2023/06/18 10:31:31;;;;;;;0.00;0.00;;;36.40;31.80;;;;;;5072411;28;20186;-67
2023/06/18 10:33:57;;;;;;;0.00;0.00;;;36.30;30.90;;;;;;5072167;28;20258;-68
2023/06/18 10:36:23;;;;;;;0.00;0.00;;;36.00;31.90;;;;;;5072426;28;20204;-68
2023/06/18 10:38:49;;;;;;;0.10;0.10;;;36.10;31.30;;;;;;5072322;28;20557;-69
2023/06/18 10:41:19;;;;;;;0.30;0.10;;;36.00;31.90;;;;;;5072120;28;20226;-68
2023/06/18 10:43:50;;;;;;;0.00;0.00;;;36.00;32.20;;;;;;5072271;28;20203;-70
2023/06/18 10:46:16;;;;;;;0.00;0.00;;;36.10;31.90;;;;;;5072126;28;20210;-69
2023/06/18 10:49:11;;;;;;;0.00;0.00;;;36.30;30.40;;;;;;5072030;28;20204;-69
2023/06/18 10:51:37;;;;;;;0.32;0.32;;;36.70;30.40;;;;;;5071890;28;20589;-69
2023/06/18 10:54:23;;;;;;;0.10;0.05;;;36.70;31.30;;;;;;5071206;28;20207;-70
2023/06/18 10:56:51;;;;;;;0.00;0.00;;;37.00;31.10;;;;;;5071933;28;20176;-70
2023/06/18 10:59:35;;;;;;;0.00;0.00;;;37.30;29.80;;;;;;5070758;28;20540;-70
2023/06/18 11:02:01;;;;;;;0.03;0.03;;;37.40;30.00;;;;;;5071866;28;20589;-69
2023/06/18 11:04:32;;;;;;;0.00;0.00;;;37.00;29.60;;;;;;5071873;28;20818;-69
2023/06/18 11:07:23;;;;;;;0.00;0.00;;;36.90;30.10;;;;;;5071711;28;20514;-70
2023/06/18 11:09:57;;;;;;;0.00;0.00;;;37.10;29.80;;;;;;5071675;28;20207;-70
2023/06/18 11:12:28;;;;;;;0.00;0.00;;;37.10;30.00;;;;;;5071770;28;20183;-70
2023/06/18 11:15:16;;;;;;;0.00;0.00;;;36.90;29.50;;;;;;5071673;28;20172;-69
2023/06/18 11:17:53;;;;;;;0.00;0.00;;;36.80;29.90;;;;;;5071648;28;20183;-69
2023/06/18 11:20:22;;;;;;;0.10;0.10;;;36.70;30.70;;;;;;5071680;28;20182;-69
2023/06/18 11:22:53;;;;;;;0.32;0.00;;;36.60;29.70;;;;;;5071510;28;20765;-69
2023/06/18 11:25:19;;;;;;;0.10;0.10;;;36.40;30.20;;;;;;5071513;28;20567;-69
2023/06/18 11:27:46;;;;;;;0.00;0.00;;;36.60;30.00;;;;;;5071365;28;20223;-68
2023/06/18 11:30:13;;;;;;;0.00;0.00;;;36.70;30.30;;;;;;5071618;28;20188;-69
2023/06/18 11:32:40;;;;;;;0.00;0.00;;;36.90;29.90;;;;;;5071322;28;20172;-68
2023/06/18 11:35:07;;;;;;;0.00;0.00;;;37.20;30.20;;;;;;5071693;28;20207;-69
2023/06/18 11:37:33;;;;;;;0.00;0.00;;;37.30;29.80;;;;;;5071533;28;20242;-68
2023/06/18 11:39:59;;;;;;;0.00;0.00;;;37.50;30.00;;;;;;5071286;28;20222;-69
2023/06/18 11:42:26;;;;;;;0.00;0.00;;;37.50;29.80;;;;;;5071368;28;20180;-69
2023/06/18 11:44:58;;;;;;;0.10;0.08;;;37.40;29.90;;;;;;5071282;28;20180;-69
2023/06/18 11:47:24;;;;;;;0.00;0.00;;;37.40;29.90;;;;;;5071449;28;20275;-69
2023/06/18 11:49:54;;;;;;;0.00;0.00;;;37.10;29.50;;;;;;5071264;28;20294;-69
2023/06/18 11:52:21;;;;;;;0.20;0.20;;;37.00;30.40;;;;;;5071388;28;20168;-69
2023/06/18 11:54:48;;;;;;;0.00;0.00;;;36.60;30.10;;;;;;5071390;28;20184;-70
2023/06/18 11:57:15;;;;;;;0.00;0.00;;;36.70;30.00;;;;;;5071387;28;20176;-69
2023/06/18 11:59:41;;;;;;;0.00;0.00;;;36.80;30.40;;;;;;5071056;28;20274;-69
2023/06/18 12:02:10;;;;;;;0.00;0.00;;;37.10;30.20;;;;;;5071286;28;20184;-70
2023/06/18 12:04:36;;;;;;;0.00;0.00;;;37.00;29.80;;;;;;5071121;28;20179;-68
2023/06/18 12:07:01;;;;;;;0.00;0.00;;;36.90;30.70;;;;;;5074761;28;20172;-69
2023/06/18 12:09:35;;;;;;;0.00;0.00;;;36.80;30.60;;;;;;5075081;28;20917;-69
2023/06/18 12:12:17;;;;;;;0.00;0.00;;;36.90;30.80;;;;;;5070725;28;20184;-69
2023/06/18 12:15:16;;;;;;;0.00;0.00;;;37.00;31.00;;;;;;5075071;28;20179;-69
2023/06/18 12:18:09;;;;;;;0.00;0.00;;;37.00;31.40;;;;;;5056664;28;20193;-69
2023/06/18 12:20:35;;;;;;;0.00;0.00;;;36.90;30.60;;;;;;5074846;28;20195;-69
2023/06/18 12:23:02;;;;;;;0.00;0.00;;;36.80;32.20;;;;;;5074980;28;20168;-69
2023/06/18 12:25:29;;;;;;;0.10;0.10;;;36.90;31.40;;;;;;5058619;28;20215;-69
2023/06/18 12:27:57;;;;;;;0.00;0.00;;;36.90;31.10;;;;;;5053174;28;20569;-69
2023/06/18 12:30:28;;;;;;;0.00;0.00;;;36.90;30.80;;;;;;5054835;28;20666;-69
2023/06/18 12:33:01;;;;;;;0.00;0.00;;;37.10;30.40;;;;;;5054635;28;20347;-69
2023/06/18 12:35:26;;;;;;;0.00;0.00;;;37.20;30.40;;;;;;5054900;28;20684;-69
2023/06/18 12:37:52;;;;;;;0.52;0.52;;;37.00;30.00;;;;;;5054510;28;20272;-69
2023/06/18 12:40:25;;;;;;;0.00;0.00;;;36.90;30.30;;;;;;5054547;28;20181;-70
2023/06/18 12:42:51;;;;;;;0.00;0.00;;;36.90;30.70;;;;;;5054481;28;20185;-69
2023/06/18 12:45:24;;;;;;;0.00;0.00;;;36.90;31.80;;;;;;5054422;28;20524;-69
2023/06/18 12:47:49;;;;;;;0.00;0.00;;;36.90;31.40;;;;;;5054373;28;20509;-69
2023/06/18 12:50:27;;;;;;;0.00;0.00;;;36.80;30.90;;;;;;5054273;28;20188;-69